KCID

The Eastern Iowa Airport

Cedar Rapids, Iowa, USA
METAR KCID 181252Z 15009KT 10SM CLR M03/M06 A3012 RMK AO2 SLP208 T10281056
Observed Flight Rules
Dec-18 @ 12:52 UTC (17 minutes ago) Visual Flight Rules
Wind Visibility Clouds
150° at 9 knots 10 miles
  • Clear skies
Temperatures Readings
Current -3°C / 27°F
Dewpoint -6°C / 21°F
Humidity 80%
Altimeter 30.12" Hg
Pressure 1020.8 hPa
Elevation 264
METAR KCID 181252Z 15009KT 10SM CLR M03/M06 A3012 RMK AO2 SLP208 T10281056
Observed Flight Rules
Dec-18 @ 12:52 UTC
(17 minutes ago)
VFR
Wind Visibility
150° at 9 knots 10 miles
Clouds
  • Clear skies
Temperature Dewpoint
-3°C / 27°F -6°C / 21°F
Humidity Altimeter Pressure
80% 30.12" Hg 1020.8 hPa